createdAt,value
2023-04-07T00:02:38.293Z,13.68
2023-04-07T00:05:24.807Z,16.65
2023-04-07T00:08:11.250Z,13.02
2023-04-07T00:10:58.405Z,15.15
2023-04-07T00:13:46.004Z,17.65
2023-04-07T00:16:32.322Z,13.00
2023-04-07T00:19:18.666Z,13.63
2023-04-07T00:22:04.990Z,20.10
2023-04-07T00:24:51.212Z,14.23
2023-04-07T00:27:37.572Z,20.17
2023-04-07T00:30:25.000Z,15.98
2023-04-07T00:33:11.394Z,12.90
2023-04-07T00:35:58.771Z,16.75
2023-04-07T00:38:45.290Z,16.10
2023-04-07T00:41:31.545Z,11.27
2023-04-07T00:44:18.236Z,11.95
2023-04-07T00:47:06.232Z,11.20
2023-04-07T00:49:52.921Z,17.23
2023-04-07T00:52:39.174Z,14.40
2023-04-07T00:55:25.272Z,15.73
2023-04-07T00:58:11.787Z,11.80
2023-04-07T01:01:08.299Z,16.65
2023-04-07T01:04:02.457Z,15.38
2023-04-07T01:06:52.418Z,13.02
2023-04-07T01:09:49.102Z,11.43
2023-04-07T01:12:41.031Z,11.07
2023-04-07T01:15:31.085Z,14.35
2023-04-07T01:18:23.149Z,19.15
2023-04-07T01:21:15.063Z,14.80
2023-04-07T01:24:30.013Z,14.48
2023-04-07T01:27:22.857Z,17.88
2023-04-07T01:30:13.617Z,17.60
2023-04-07T01:33:02.669Z,17.58
2023-04-07T01:35:51.277Z,17.90
2023-04-07T01:38:38.727Z,14.05
2023-04-07T01:41:26.365Z,17.50
2023-04-07T01:44:13.705Z,18.02
2023-04-07T01:47:03.199Z,17.90
2023-04-07T01:49:51.478Z,21.75
2023-04-07T01:52:38.994Z,21.15
2023-04-07T01:55:26.575Z,21.70
2023-04-07T01:58:22.083Z,26.67
2023-04-07T02:01:08.873Z,21.83
2023-04-07T02:04:07.717Z,19.38
2023-04-07T02:07:02.939Z,25.65
2023-04-07T02:09:57.505Z,21.33
2023-04-07T02:12:47.119Z,13.18
2023-04-07T02:15:38.086Z,20.20
2023-04-07T02:18:26.195Z,21.83
2023-04-07T02:21:15.474Z,20.38
2023-04-07T02:24:07.384Z,17.27
2023-04-07T02:26:53.769Z,18.85
2023-04-07T02:29:39.819Z,15.43
2023-04-07T02:32:26.227Z,15.73
2023-04-07T02:35:12.656Z,11.68
2023-04-07T02:38:00.418Z,14.98
2023-04-07T02:40:46.689Z,13.10
2023-04-07T02:43:32.753Z,17.13
2023-04-07T02:46:19.113Z,13.88
2023-04-07T02:49:05.755Z,17.90
2023-04-07T02:51:52.082Z,10.32
2023-04-07T02:54:39.652Z,15.52
2023-04-07T02:57:27.204Z,15.02
2023-04-07T03:00:17.460Z,18.90
2023-04-07T03:03:14.609Z,14.13
2023-04-07T03:06:07.596Z,19.42
2023-04-07T03:08:59.144Z,14.50
2023-04-07T03:11:47.029Z,19.02
2023-04-07T03:14:33.448Z,22.35
2023-04-07T03:17:21.270Z,17.92
2023-04-07T03:20:09.281Z,15.20
2023-04-07T03:22:57.250Z,25.25
2023-04-07T03:28:37.038Z,16.27
2023-04-07T03:31:23.955Z,17.13
2023-04-07T03:34:12.371Z,22.95
2023-04-07T03:36:58.896Z,19.08
2023-04-07T03:39:45.638Z,25.38
2023-04-07T03:42:44.363Z,23.00
2023-04-07T03:45:35.712Z,16.77
2023-04-07T03:48:22.464Z,18.33
2023-04-07T03:51:18.516Z,18.30
2023-04-07T03:54:06.835Z,20.95
2023-04-07T03:56:58.277Z,16.75
2023-04-07T03:59:46.053Z,28.67
2023-04-07T04:02:33.897Z,17.08
2023-04-07T04:05:20.084Z,17.20
2023-04-07T04:08:07.953Z,16.13
2023-04-07T04:10:58.289Z,16.48
2023-04-07T04:13:50.359Z,26.20
2023-04-07T04:16:37.370Z,21.92
2023-04-07T04:19:31.722Z,37.15
2023-04-07T04:22:21.902Z,25.13
2023-04-07T04:25:11.825Z,27.17
2023-04-07T04:28:00.158Z,23.58
2023-04-07T04:30:46.746Z,27.75
2023-04-07T04:33:33.353Z,18.13
2023-04-07T04:36:21.077Z,20.40
2023-04-07T04:39:08.814Z,22.13
2023-04-07T04:41:56.580Z,18.67
2023-04-07T04:44:49.884Z,25.95
2023-04-07T04:47:38.926Z,21.27
2023-04-07T04:50:25.749Z,29.88
2023-04-07T04:53:13.965Z,27.17
2023-04-07T04:56:11.226Z,16.30
2023-04-07T04:59:06.841Z,19.60
2023-04-07T05:02:01.488Z,17.73
2023-04-07T05:04:48.158Z,12.57
2023-04-07T05:07:47.572Z,13.52
2023-04-07T05:10:39.549Z,17.48
2023-04-07T05:13:30.684Z,19.75
2023-04-07T05:16:20.184Z,12.00
2023-04-07T05:19:07.101Z,16.17
2023-04-07T05:21:53.416Z,18.13
2023-04-07T05:24:41.588Z,21.52
2023-04-07T05:27:29.557Z,19.63
2023-04-07T05:30:21.761Z,19.48
2023-04-07T05:33:08.368Z,18.48
2023-04-07T05:36:10.119Z,16.90
2023-04-07T05:38:58.459Z,20.45
2023-04-07T05:41:45.727Z,19.38
2023-04-07T05:44:34.121Z,15.32
2023-04-07T05:47:20.615Z,19.20
2023-04-07T05:50:12.175Z,15.13
2023-04-07T05:52:59.156Z,16.77
2023-04-07T05:55:46.716Z,15.50
2023-04-07T05:58:42.159Z,14.80
2023-04-07T06:01:31.172Z,17.55
2023-04-07T06:04:17.561Z,12.90
2023-04-07T06:07:06.069Z,17.77
2023-04-07T06:09:52.659Z,15.32
2023-04-07T06:12:38.595Z,12.48
2023-04-07T06:15:25.576Z,16.75
2023-04-07T06:18:13.351Z,21.20
2023-04-07T06:20:59.410Z,10.35
2023-04-07T06:23:45.941Z,14.05
2023-04-07T06:26:32.526Z,8.88
2023-04-07T06:29:18.883Z,14.02
2023-04-07T06:32:05.301Z,10.25
2023-04-07T06:34:52.731Z,14.82
2023-04-07T06:37:40.433Z,13.18
2023-04-07T06:40:26.513Z,14.68
2023-04-07T06:43:13.061Z,14.15
2023-04-07T06:46:09.777Z,13.50
2023-04-07T06:48:56.413Z,10.38
2023-04-07T06:51:44.143Z,14.93
2023-04-07T06:54:30.334Z,14.65
2023-04-07T06:57:17.482Z,14.05
2023-04-07T07:00:04.274Z,13.80
2023-04-07T07:02:50.951Z,14.95
2023-04-07T07:05:37.210Z,10.27
2023-04-07T07:08:24.950Z,11.82
2023-04-07T07:11:11.841Z,10.18
2023-04-07T07:13:58.120Z,16.60
2023-04-07T07:16:44.218Z,14.38
2023-04-07T07:19:30.325Z,12.40
2023-04-07T07:22:16.783Z,13.60
2023-04-07T07:25:05.060Z,17.83
2023-04-07T07:27:53.283Z,14.80
2023-04-07T07:30:40.655Z,15.00
2023-04-07T07:33:27.481Z,12.57
2023-04-07T07:36:13.991Z,7.95
2023-04-07T07:39:00.857Z,10.20
2023-04-07T07:41:48.300Z,14.57
2023-04-07T07:44:34.630Z,17.23
2023-04-07T07:47:21.104Z,17.42
2023-04-07T07:50:08.109Z,11.35
2023-04-07T07:52:54.414Z,8.30
2023-04-07T07:55:40.980Z,14.15
2023-04-07T07:58:28.501Z,14.23
2023-04-07T08:01:14.774Z,10.32
2023-04-07T08:04:01.411Z,10.95
2023-04-07T08:06:47.881Z,15.13
2023-04-07T08:09:34.307Z,13.80
2023-04-07T08:12:20.913Z,11.63
2023-04-07T08:15:10.348Z,16.75
2023-04-07T08:17:56.863Z,19.98
2023-04-07T08:20:43.692Z,14.65
2023-04-07T08:23:30.093Z,15.07
2023-04-07T08:26:16.391Z,16.40
2023-04-07T08:29:02.802Z,9.52
2023-04-07T08:31:50.507Z,11.80
2023-04-07T08:34:36.933Z,12.43
2023-04-07T08:37:23.547Z,12.57
2023-04-07T08:40:10.610Z,12.05
2023-04-07T08:42:59.904Z,11.23
2023-04-07T08:45:47.569Z,9.98
2023-04-07T08:48:36.422Z,20.20
2023-04-07T08:51:29.546Z,13.13
2023-04-07T08:54:18.857Z,12.10
2023-04-07T08:57:06.025Z,10.93
2023-04-07T08:59:52.693Z,17.70
2023-04-07T09:02:43.208Z,10.15
2023-04-07T09:05:35.563Z,11.13
2023-04-07T09:08:22.271Z,9.00
2023-04-07T09:11:08.604Z,13.43
2023-04-07T09:13:55.584Z,10.20
2023-04-07T09:16:42.726Z,10.10
2023-04-07T09:19:32.141Z,11.73
2023-04-07T09:22:35.969Z,15.57
2023-04-07T09:25:27.139Z,8.70
2023-04-07T09:28:13.765Z,13.63
2023-04-07T09:31:00.276Z,12.07
2023-04-07T09:33:47.337Z,13.73
2023-04-07T09:36:42.436Z,12.13
2023-04-07T09:39:30.626Z,8.70
2023-04-07T09:42:16.825Z,11.57
2023-04-07T09:45:03.772Z,10.52
2023-04-07T09:47:50.670Z,13.38
2023-04-07T09:50:40.988Z,8.68
2023-04-07T09:53:42.992Z,11.65
2023-04-07T09:56:31.149Z,15.45
2023-04-07T09:59:18.121Z,13.98
2023-04-07T10:02:04.951Z,12.02
2023-04-07T10:04:51.558Z,15.95
2023-04-07T10:07:38.061Z,14.10
2023-04-07T10:10:24.662Z,12.27
2023-04-07T10:13:13.280Z,10.85
2023-04-07T10:16:00.321Z,13.65
2023-04-07T10:18:47.254Z,12.55
2023-04-07T10:21:37.159Z,11.15
2023-04-07T10:24:37.697Z,12.68
2023-04-07T10:27:32.191Z,8.77
2023-04-07T10:30:25.025Z,11.85
2023-04-07T10:33:11.390Z,11.88
2023-04-07T10:36:05.638Z,8.77
2023-04-07T10:39:23.246Z,10.65
2023-04-07T10:42:48.330Z,13.57
2023-04-07T10:46:00.125Z,9.40
2023-04-07T10:49:09.705Z,9.55
2023-04-07T10:52:23.916Z,11.82
2023-04-07T10:55:34.914Z,9.77
2023-04-07T10:58:23.124Z,9.65
2023-04-07T11:01:32.345Z,10.02
2023-04-07T11:04:18.540Z,12.45
2023-04-07T11:07:04.883Z,13.20
2023-04-07T11:09:51.475Z,10.23
2023-04-07T11:12:37.505Z,10.85
2023-04-07T11:15:24.103Z,13.18
2023-04-07T11:18:17.392Z,11.90
2023-04-07T11:21:08.068Z,13.15
2023-04-07T11:23:54.316Z,10.77
2023-04-07T11:26:42.283Z,10.98
2023-04-07T11:29:30.355Z,10.90
2023-04-07T11:32:17.025Z,13.30
2023-04-07T11:35:07.681Z,14.18
2023-04-07T11:37:58.895Z,11.48
2023-04-07T11:40:45.393Z,11.68
2023-04-07T11:43:32.273Z,16.83
2023-04-07T11:46:19.770Z,16.63
2023-04-07T11:49:13.965Z,11.32
2023-04-07T11:52:03.302Z,14.75
2023-04-07T11:54:50.486Z,13.70
2023-04-07T11:57:36.651Z,14.15
2023-04-07T12:00:23.480Z,14.95
2023-04-07T12:03:16.082Z,15.27
2023-04-07T12:06:03.707Z,13.02
2023-04-07T12:08:51.202Z,12.93
2023-04-07T12:11:37.481Z,13.40
2023-04-07T12:14:23.937Z,16.67
2023-04-07T12:17:24.100Z,10.05
2023-04-07T12:20:12.038Z,10.45
2023-04-07T12:23:02.822Z,12.88
2023-04-07T12:25:55.709Z,11.13
2023-04-07T12:28:42.097Z,10.77
2023-04-07T12:31:28.919Z,10.95
2023-04-07T12:34:15.594Z,17.30
2023-04-07T12:37:02.056Z,12.18
2023-04-07T12:39:48.235Z,14.10
2023-04-07T12:42:35.746Z,14.05
2023-04-07T12:45:22.637Z,14.80
2023-04-07T12:48:09.731Z,11.43
2023-04-07T12:50:56.395Z,13.93
2023-04-07T12:53:42.901Z,14.10
2023-04-07T12:56:30.849Z,16.60
2023-04-07T12:59:18.613Z,16.35
2023-04-07T13:02:05.105Z,17.55
2023-04-07T13:04:51.631Z,13.45
2023-04-07T13:07:37.881Z,12.98
2023-04-07T13:10:24.409Z,18.25
2023-04-07T13:13:11.176Z,20.52
2023-04-07T13:15:58.907Z,20.08
2023-04-07T13:18:44.973Z,15.57
2023-04-07T13:24:21.517Z,15.73
2023-04-07T13:27:08.778Z,12.68
2023-04-07T13:29:54.942Z,20.33
2023-04-07T13:32:42.818Z,11.38
2023-04-07T13:35:30.274Z,14.48
2023-04-07T13:38:16.878Z,13.35
2023-04-07T13:41:04.017Z,9.75
2023-04-07T13:43:51.654Z,14.15
2023-04-07T13:46:38.295Z,12.32
2023-04-07T13:49:26.355Z,18.05
2023-04-07T13:52:13.501Z,19.90
2023-04-07T13:54:59.781Z,16.90
2023-04-07T13:57:46.386Z,12.25
2023-04-07T14:00:35.391Z,14.27
2023-04-07T14:03:22.581Z,17.30
2023-04-07T14:06:10.746Z,14.52
2023-04-07T14:08:57.358Z,16.83
2023-04-07T14:11:43.703Z,10.32
2023-04-07T14:14:30.369Z,17.88
2023-04-07T14:17:16.662Z,18.20
2023-04-07T14:20:03.920Z,17.33
2023-04-07T14:22:52.155Z,14.52
2023-04-07T14:25:38.262Z,15.77
2023-04-07T14:28:25.145Z,13.52
2023-04-07T14:31:16.264Z,10.68
2023-04-07T14:34:02.773Z,16.83
2023-04-07T14:36:56.043Z,12.15
2023-04-07T14:39:51.651Z,11.68
2023-04-07T14:42:46.315Z,16.50
2023-04-07T14:45:32.735Z,16.00
2023-04-07T14:48:18.686Z,10.25
2023-04-07T14:51:09.803Z,7.35
2023-04-07T14:53:57.718Z,17.48
2023-04-07T14:56:45.490Z,9.82
2023-04-07T14:59:31.984Z,11.82
2023-04-07T15:02:18.376Z,10.93
2023-04-07T15:05:05.796Z,9.60
2023-04-07T15:07:52.515Z,10.45
2023-04-07T15:10:39.254Z,8.63
2023-04-07T15:13:27.752Z,9.88
2023-04-07T15:16:16.113Z,9.95
2023-04-07T15:19:02.421Z,12.48
2023-04-07T15:21:48.842Z,14.98
2023-04-07T15:24:34.945Z,14.65
2023-04-07T15:27:21.060Z,10.75
2023-04-07T15:30:10.156Z,11.13
2023-04-07T15:33:00.448Z,10.75
2023-04-07T15:35:46.954Z,12.40
2023-04-07T15:38:33.399Z,7.72
2023-04-07T15:41:19.999Z,13.90
2023-04-07T15:44:06.693Z,9.25
2023-04-07T15:46:54.890Z,20.75
2023-04-07T15:49:42.327Z,14.20
2023-04-07T15:52:29.412Z,13.75
2023-04-07T15:55:15.591Z,14.85
2023-04-07T15:58:02.100Z,15.38
2023-04-07T16:00:53.196Z,10.65
2023-04-07T16:03:40.861Z,10.10
2023-04-07T16:06:30.013Z,9.65
2023-04-07T16:09:16.551Z,15.05
2023-04-07T16:12:05.500Z,12.32
2023-04-07T16:14:52.306Z,11.73
2023-04-07T16:17:40.425Z,8.40
2023-04-07T16:20:28.178Z,10.25
2023-04-07T16:23:14.967Z,15.73
2023-04-07T16:26:04.352Z,18.00
2023-04-07T16:28:50.617Z,18.02
2023-04-07T16:31:41.162Z,13.50
2023-04-07T16:34:27.942Z,16.77
2023-04-07T16:37:15.708Z,12.05
2023-04-07T16:40:02.042Z,12.57
2023-04-07T16:42:48.728Z,14.45
2023-04-07T16:45:35.231Z,15.90
2023-04-07T16:48:21.834Z,14.95
2023-04-07T16:51:13.984Z,13.32
2023-04-07T16:54:02.241Z,14.40
2023-04-07T16:56:50.430Z,17.70
2023-04-07T16:59:36.525Z,23.13
2023-04-07T17:02:22.843Z,18.70
2023-04-07T17:05:10.131Z,18.20
2023-04-07T17:07:57.361Z,23.83
2023-04-07T17:10:45.285Z,23.08
2023-04-07T17:13:31.272Z,22.35
2023-04-07T17:16:17.532Z,20.30
2023-04-07T17:19:03.852Z,16.80
2023-04-07T17:21:50.603Z,19.13
2023-04-07T17:24:37.175Z,16.17
2023-04-07T17:27:25.093Z,16.65
2023-04-07T17:30:12.469Z,19.88
2023-04-07T17:32:59.235Z,17.17
2023-04-07T17:35:47.440Z,26.20
2023-04-07T17:38:35.967Z,15.10
2023-04-07T17:41:22.703Z,19.52
2023-04-07T17:44:10.901Z,14.70
2023-04-07T17:46:56.937Z,21.35
2023-04-07T17:49:43.239Z,26.83
2023-04-07T17:52:30.453Z,23.25
2023-04-07T17:55:17.686Z,27.17
2023-04-07T17:58:04.088Z,19.90
2023-04-07T18:00:52.079Z,27.63
2023-04-07T18:03:39.108Z,22.35
2023-04-07T18:06:25.195Z,26.27
2023-04-07T18:09:11.509Z,22.35
2023-04-07T18:11:57.959Z,24.85
2023-04-07T18:14:46.884Z,22.33
2023-04-07T18:17:34.882Z,27.15
2023-04-07T18:20:21.525Z,24.00
2023-04-07T18:23:08.255Z,24.05
2023-04-07T18:25:54.710Z,30.35
2023-04-07T18:28:41.133Z,20.15
2023-04-07T18:31:27.622Z,21.00
2023-04-07T18:34:15.617Z,19.52
2023-04-07T18:37:01.931Z,24.85
2023-04-07T18:39:48.024Z,26.42
2023-04-07T18:42:34.279Z,24.25
2023-04-07T18:45:21.850Z,22.20
2023-04-07T18:48:08.301Z,20.13
2023-04-07T18:50:56.619Z,24.38
2023-04-07T18:53:43.240Z,17.27
2023-04-07T18:56:34.645Z,18.92
2023-04-07T18:59:21.219Z,20.45
2023-04-07T19:02:07.732Z,34.45
2023-04-07T19:04:54.223Z,19.83
2023-04-07T19:07:41.782Z,21.55
2023-04-07T19:10:28.085Z,20.00
2023-04-07T19:13:16.022Z,22.52
2023-04-07T19:16:03.093Z,22.17
2023-04-07T19:18:49.317Z,18.60
2023-04-07T19:21:35.923Z,19.38
2023-04-07T19:24:23.566Z,21.13
2023-04-07T19:27:12.041Z,24.48
2023-04-07T19:29:58.769Z,22.83
2023-04-07T19:32:45.435Z,23.50
2023-04-07T19:35:31.894Z,34.30
2023-04-07T19:38:18.452Z,25.95
2023-04-07T19:41:06.345Z,23.27
2023-04-07T19:43:53.241Z,29.67
2023-04-07T19:46:39.653Z,27.50
2023-04-07T19:49:25.968Z,32.70
2023-04-07T19:52:12.192Z,28.23
2023-04-07T19:54:58.353Z,35.90
2023-04-07T19:57:45.973Z,33.72
2023-04-07T20:00:33.533Z,31.23
2023-04-07T20:03:20.798Z,32.13
2023-04-07T20:06:07.370Z,33.75
2023-04-07T20:08:54.151Z,37.17
2023-04-07T20:11:40.444Z,37.47
2023-04-07T20:14:28.259Z,37.28
2023-04-07T20:17:14.793Z,37.97
2023-04-07T20:20:01.309Z,44.22
2023-04-07T20:22:47.968Z,37.17
2023-04-07T20:25:35.570Z,47.08
2023-04-07T20:28:21.982Z,43.75
2023-04-07T20:31:09.938Z,39.45
2023-04-07T20:33:56.467Z,44.95
2023-04-07T20:36:42.676Z,48.90
2023-04-07T20:39:29.049Z,46.13
2023-04-07T20:42:15.828Z,47.60
2023-04-07T20:45:04.680Z,47.13
2023-04-07T20:47:52.382Z,45.58
2023-04-07T20:50:38.760Z,41.28
2023-04-07T20:53:25.177Z,48.85
2023-04-07T20:56:11.961Z,42.28
2023-04-07T20:58:58.232Z,36.80
2023-04-07T21:01:44.881Z,39.78
2023-04-07T21:04:32.423Z,35.05
2023-04-07T21:07:18.864Z,35.00
2023-04-07T21:10:05.526Z,30.20
2023-04-07T21:12:51.850Z,42.30
2023-04-07T21:15:38.346Z,39.38
2023-04-07T21:18:24.949Z,34.15
2023-04-07T21:21:12.933Z,38.22
2023-04-07T21:23:59.583Z,46.35
2023-04-07T21:26:50.270Z,41.08
2023-04-07T21:29:36.637Z,40.28
2023-04-07T21:32:23.049Z,34.42
2023-04-07T21:35:10.443Z,40.53
2023-04-07T21:37:58.404Z,35.95
2023-04-07T21:40:44.939Z,39.65
2023-04-07T21:43:31.395Z,46.72
2023-04-07T21:46:18.113Z,41.45
2023-04-07T21:49:04.805Z,49.78
2023-04-07T21:51:51.280Z,45.25
2023-04-07T21:54:38.972Z,42.97
2023-04-07T21:57:25.312Z,43.35
2023-04-07T22:00:14.013Z,52.70
2023-04-07T22:03:04.717Z,48.90
2023-04-07T22:05:51.496Z,48.25
2023-04-07T22:08:37.845Z,48.40
2023-04-07T22:11:26.118Z,56.17
2023-04-07T22:14:13.044Z,53.53
2023-04-07T22:16:59.280Z,57.17
2023-04-07T22:19:45.352Z,57.60
2023-04-07T22:22:31.776Z,56.38
2023-04-07T22:25:18.310Z,61.80
2023-04-07T22:28:06.014Z,57.47
2023-04-07T22:30:52.415Z,61.03
2023-04-07T22:33:38.721Z,62.20
2023-04-07T22:36:24.845Z,65.78
2023-04-07T22:39:11.558Z,74.30
2023-04-07T22:41:57.850Z,72.22
2023-04-07T22:44:45.216Z,71.90
2023-04-07T22:47:31.638Z,65.05
2023-04-07T22:50:17.940Z,75.63
2023-04-07T22:53:04.048Z,74.03
2023-04-07T22:55:50.590Z,70.28
2023-04-07T22:58:36.966Z,73.55
2023-04-07T23:01:25.051Z,72.60
2023-04-07T23:04:11.505Z,76.32
2023-04-07T23:06:57.706Z,73.13
2023-04-07T23:09:44.111Z,64.07
2023-04-07T23:12:31.420Z,78.18
2023-04-07T23:15:18.511Z,68.43
2023-04-07T23:18:06.437Z,69.65
2023-04-07T23:20:53.001Z,68.43
2023-04-07T23:23:39.551Z,75.03
2023-04-07T23:26:26.650Z,83.22
2023-04-07T23:29:13.123Z,77.55
2023-04-07T23:31:59.310Z,86.82
2023-04-07T23:34:47.242Z,87.63
2023-04-07T23:37:33.609Z,94.38
2023-04-07T23:40:20.378Z,82.22
2023-04-07T23:43:06.519Z,84.40
2023-04-07T23:45:52.969Z,87.95
2023-04-07T23:48:39.577Z,90.57
2023-04-07T23:51:27.645Z,84.85
2023-04-07T23:54:13.884Z,91.82
2023-04-07T23:57:01.564Z,81.85
2023-04-07T23:59:47.674Z,82.38
